Flight Track Log - Related Links

Times and Time Zones

All times are in EDT time to prevent confusion due to time zone crossing. See the ASQ4142 flight status page for this flight to view local times or setup timezone preferences in your user account.

Time Position Orientation Groundspeed Altitude Reporting Facility
EDT Latitude Longitude Course Direction KTS MPH feet Rate Location/Type
Mon 04:28:21 PM 29.9622 -95.3458 126° Southeast 139 160 800  Level Houston Center
Mon 04:29:02 PM 29.9422 -95.3139 121° Southeast 180 207 1,900 1,561 Climbing Houston Center
Mon 04:30:24 PM 29.8967 -95.2261 151° Southeast 248 285 4,000 1,100 Climbing Houston Center
Mon 04:31:02 PM 29.8575 -95.2008 155° Southeast 244 281 4,100 1,592 Climbing Houston Center
Mon 04:32:02 PM 29.7958 -95.1675 153° Southeast 244 281 6,600 2,350 Climbing Houston Center
Mon 04:33:02 PM 29.7322 -95.1294 168° South 260 299 8,800 1,850 Climbing Houston Center
Mon 04:34:02 PM 29.6678 -95.1131 209° Southwest 280 322 10,300 1,150 Climbing Houston Center
Mon 04:35:02 PM 29.5808 -95.1675 204° Southwest 280 322 11,100 1,000 Climbing Houston Center
Mon 04:36:02 PM 29.4983 -95.2100 205° Southwest 323 372 12,300 1,300 Climbing Houston Center
Mon 04:37:02 PM 29.4094 -95.2569 205° Southwest 346 398 13,700 1,450 Climbing Houston Center
Mon 04:38:02 PM 29.3206 -95.3042 214° Southwest 357 411 15,200 1,400 Climbing Houston Center
Mon 04:39:02 PM 29.2372 -95.3678 215° Southwest 357 411 16,500 1,250 Climbing Houston Center
Mon 04:40:02 PM 29.1542 -95.4339 214° Southwest 362 417 17,700 1,150 Climbing Houston Center
Mon 04:41:02 PM 29.0686 -95.4997 215° Southwest 367 422 18,800 1,150 Climbing Houston Center
Mon 04:42:02 PM 28.9856 -95.5656 214° Southwest 367 422 20,000 1,200 Climbing Houston Center
Mon 04:43:02 PM 28.8978 -95.6333 214° Southwest 372 428 21,200 1,150 Climbing Houston Center
Mon 04:44:02 PM 28.8103 -95.7011 214° Southwest 377 434 22,300 1,150 Climbing Houston Center
Mon 04:45:02 PM 28.7164 -95.7733 213° Southwest 382 440 23,500 1,200 Climbing Houston Center
Mon 04:46:02 PM 28.6286 -95.8386 215° Southwest 382 440 24,700 1,200 Climbing Houston Center
Mon 04:47:02 PM 28.5408 -95.9086 216° Southwest 382 440 25,900 1,200 Climbing Houston Center
Mon 04:48:02 PM 28.4553 -95.9783 214° Southwest 382 440 27,100 1,050 Climbing Houston Center
Mon 04:49:02 PM 28.3675 -96.0456 214° Southwest 387 445 28,000 450 Climbing Houston Center
Mon 04:50:02 PM 28.2753 -96.1175 212° Southwest 392 451 28,000  Level Houston Center
Mon 04:51:02 PM 28.1983 -96.1731 215° Southwest 405 466 28,000  Level Houston Center
Mon 04:52:02 PM 28.0956 -96.2536 214° Southwest 412 474 28,000  Level Houston Center
Mon 04:53:02 PM 27.9947 -96.3317 214° Southwest 426 490 28,000  Level Houston Center
Mon 04:54:02 PM 27.8942 -96.4072 215° Southwest 437 503 28,000  Level Houston Center
Mon 04:55:02 PM 27.7953 -96.4850 215° Southwest 442 509 28,000  Level Houston Center
Mon 04:56:02 PM 27.6944 -96.5650 213° Southwest 442 509 28,000  Level Houston Center
Mon 04:57:02 PM 27.5936 -96.6400 213° Southwest 442 509 28,000 -350 Level Houston Center
Mon 04:58:02 PM 27.4928 -96.7150 213° Southwest 442 509 27,300 -1,350 Descending Houston Center
Mon 04:59:02 PM 27.3919 -96.7878 214° Southwest 442 509 25,300 -2,050 Descending Houston Center
Mon 05:00:02 PM 27.2908 -96.8647 213° Southwest 448 516 23,200 -2,050 Descending Houston Center
Mon 05:01:02 PM 27.1900 -96.9369 214° Southwest 443 510 21,200 -2,000 Descending Houston Center
Mon 05:02:02 PM 27.0953 -97.0094 213° Southwest 430 495 19,200 -2,000 Descending Houston Center
Mon 05:03:02 PM 27.0031 -97.0772 214° Southwest 424 488 17,200 -1,600 Descending Houston Center
Mon 05:04:02 PM 26.9039 -97.1517 220° Southwest 412 474 16,000 -692 Descending Houston Center
Mon 05:04:46 PM 26.8453 -97.2069 223° Southwest 365 420 16,000 -367 Level Houston Center
Mon 05:05:40 PM 26.7778 -97.2778 214° Southwest 388 447 15,400 -1,513 Descending Houston Center
Mon 05:06:41 PM 26.6897 -97.3433 216° Southwest 355 409 13,100 -2,262 Descending Houston Center
Mon 05:07:42 PM 26.6139 -97.4044 216° Southwest 339 390 10,800 -1,966 Descending Houston Center
Mon 05:08:37 PM 26.5492 -97.4567 218° Southwest 302 348 9,300 -2,017 Descending Houston Center
Mon 05:09:38 PM 26.4908 -97.5069 220° Southwest 278 320 6,900 -2,281 Descending Houston Center
Mon 05:10:38 PM 26.4342 -97.5597 223° Southwest 256 295 4,700 -2,033 Descending Houston Center
Mon 05:11:39 PM 26.3839 -97.6128 220° Southwest 252 290 2,800 -1,328 Descending Houston Center
Mon 05:12:40 PM 26.3339 -97.6589 222° Southwest 237 273 2,000 -569 Descending Houston Center
Mon 05:13:35 PM 26.2947 -97.6983 184° South 207 238 1,700 -470 Descending Houston Center
Mon 05:14:35 PM 26.2611 -97.7011 135° Southeast 131 151 1,100 -645 Descending Houston Center
Mon 05:15:36 PM 26.2394 -97.6769 135° Southeast 118 136 400 -689 Descending Houston Center

Login

Don't have an account? Register now (free) for customized features, flight alerts, and more!